Time;durP1;ratioP1;P1;durP2;ratioP2;P2;SDS_P1;SDS_P2;PMS_P1;PMS_P2;Temp;Humidity;BMP_temperature;BMP_pressure;BME280_temperature;BME280_humidity;BME280_pressure;Samples;Min_cycle;Max_cycle;Signal;HPM_P1;HPM_P2
2023/08/09 00:00:08;;;;;;;4.00;2.20;;;;;;;12.98;100.00;100247.23;105211;1259;69198;-61
2023/08/09 00:02:55;;;;;;;4.40;1.70;;;;;;;12.99;100.00;100244.39;105245;1256;69473;-61
2023/08/09 00:05:22;;;;;;;2.80;1.80;;;;;;;12.97;100.00;100250.66;105258;1256;74998;-61
2023/08/09 00:07:48;;;;;;;4.50;2.00;;;;;;;12.95;100.00;100253.02;105283;1258;83234;-60
2023/08/09 00:10:15;;;;;;;3.60;2.10;;;;;;;12.95;100.00;100258.60;105197;1256;72999;-61
2023/08/09 00:12:42;;;;;;;3.70;2.00;;;;;;;12.96;100.00;100255.79;105218;1258;69199;-61
2023/08/09 00:15:10;;;;;;;5.50;2.00;;;;;;;12.98;100.00;100256.73;105190;1258;69178;-60
2023/08/09 00:17:37;;;;;;;4.50;2.00;;;;;;;13.00;100.00;100257.70;105281;1258;75534;-60
2023/08/09 00:20:09;;;;;;;7.00;3.00;;;;;;;13.00;100.00;100252.25;105247;1258;82381;-60
2023/08/09 00:22:36;;;;;;;4.20;1.80;;;;;;;13.00;100.00;100250.65;105238;1258;72044;-60
2023/08/09 00:25:03;;;;;;;3.50;1.70;;;;;;;13.02;100.00;100252.85;105243;1259;69192;-60
2023/08/09 00:27:30;;;;;;;4.10;2.30;;;;;;;13.00;100.00;100259.41;105250;1258;69139;-60
2023/08/09 00:29:57;;;;;;;6.90;1.90;;;;;;;13.01;100.00;100267.30;105238;1256;75703;-60
2023/08/09 00:32:24;;;;;;;5.10;1.90;;;;;;;13.00;100.00;100268.58;105259;1257;82316;-60
2023/08/09 00:34:51;;;;;;;4.10;1.60;;;;;;;12.99;100.00;100269.32;105191;1259;74443;-60
2023/08/09 00:37:19;;;;;;;3.80;1.80;;;;;;;12.99;100.00;100269.84;105110;1259;69177;-64
2023/08/09 00:39:46;;;;;;;2.90;1.80;;;;;;;12.98;100.00;100265.66;105252;1258;69198;-65
2023/08/09 00:42:13;;;;;;;4.60;1.70;;;;;;;12.99;100.00;100271.21;105262;1256;74673;-61
2023/08/09 00:44:41;;;;;;;3.80;1.70;;;;;;;12.98;100.00;100273.40;105220;1256;82402;-62
2023/08/09 00:47:09;;;;;;;4.30;1.70;;;;;;;12.97;100.00;100274.66;105144;1259;72508;-62
2023/08/09 00:49:37;;;;;;;2.80;2.00;;;;;;;12.96;100.00;100279.27;105258;1258;69194;-61
2023/08/09 00:52:05;;;;;;;5.40;2.00;;;;;;;12.92;100.00;100278.91;105248;1258;69157;-61
2023/08/09 00:54:32;;;;;;;2.90;1.80;;;;;;;12.90;100.00;100277.30;105201;1259;75918;-61
2023/08/09 00:57:00;;;;;;;3.20;1.60;;;;;;;12.87;100.00;100277.08;105224;1257;82413;-61
2023/08/09 00:59:27;;;;;;;9.50;2.80;;;;;;;12.84;100.00;100278.80;105227;1259;73640;-61
2023/08/09 01:01:54;;;;;;;3.70;2.10;;;;;;;12.82;100.00;100285.06;105257;1258;69215;-61
2023/08/09 01:04:21;;;;;;;4.10;1.80;;;;;;;12.80;100.00;100285.66;105213;1258;69120;-61
2023/08/09 01:07:10;;;;;;;3.90;1.90;;;;;;;12.82;100.00;100288.73;105235;1256;75739;-60
2023/08/09 01:09:52;;;;;;;2.60;1.80;;;;;;;12.90;100.00;100292.36;105130;1261;83285;-61
2023/08/09 01:12:23;;;;;;;2.40;1.60;;;;;;;13.03;100.00;100291.38;105229;1256;74229;-60
2023/08/09 01:14:57;;;;;;;3.70;1.70;;;;;;;13.12;100.00;100294.46;105177;1258;69216;-60
2023/08/09 01:17:29;;;;;;;6.40;1.90;;;;;;;13.19;100.00;100291.32;105169;1257;69173;-60
2023/08/09 01:19:57;;;;;;;3.50;1.90;;;;;;;13.23;100.00;100290.23;105287;1256;75828;-60
2023/08/09 01:22:33;;;;;;;4.10;1.60;;;;;;;13.25;100.00;100283.84;105247;1258;83521;-60
2023/08/09 01:25:06;;;;;;;6.60;1.80;;;;;;;13.24;100.00;100280.89;105269;1257;73781;-60
2023/08/09 01:27:35;;;;;;;3.20;1.70;;;;;;;13.24;100.00;100278.95;105319;1258;69175;-60
2023/08/09 01:30:04;;;;;;;3.40;1.60;;;;;;;13.24;100.00;100278.45;105264;1256;69187;-60
2023/08/09 01:32:31;;;;;;;7.00;1.60;;;;;;;13.19;100.00;100277.63;105297;1256;75667;-61
2023/08/09 01:34:59;;;;;;;4.50;1.70;;;;;;;13.14;100.00;100270.83;105250;1258;83181;-60
2023/08/09 01:38:03;;;;;;;3.00;1.70;;;;;;;13.08;100.00;100269.06;105177;1262;73197;-61
2023/08/09 01:40:31;;;;;;;5.40;1.90;;;;;;;13.00;100.00;100266.95;105152;1257;69225;-60
2023/08/09 01:42:58;;;;;;;3.10;1.60;;;;;;;12.94;100.00;100263.56;105283;1258;70404;-59
2023/08/09 01:45:26;;;;;;;7.00;2.20;;;;;;;12.89;100.00;100263.83;105166;1256;74708;-59
2023/08/09 01:47:53;;;;;;;4.90;1.80;;;;;;;12.85;100.00;100264.88;105198;1261;83344;-60
2023/08/09 01:50:23;;;;;;;3.80;1.70;;;;;;;12.83;100.00;100262.55;105321;1259;72663;-62
2023/08/09 01:52:55;;;;;;;2.20;1.60;;;;;;;12.79;100.00;100260.27;105264;1258;69179;-62
2023/08/09 01:55:25;;;;;;;4.60;1.80;;;;;;;12.79;100.00;100251.53;105266;1258;69193;-61
2023/08/09 01:57:52;;;;;;;;;;;;;;;12.78;100.00;100244.91;105215;1258;75609;-61
2023/08/09 02:00:20;;;;;;;2.30;1.60;;;;;;;12.75;100.00;100245.25;105290;1258;83523;-61
2023/08/09 02:02:49;;;;;;;3.00;2.10;;;;;;;12.70;100.00;100247.36;105302;1259;73541;-61
2023/08/09 02:05:18;;;;;;;5.10;1.90;;;;;;;12.70;100.00;100248.41;105299;1258;69192;-61
2023/08/09 02:07:45;;;;;;;3.60;2.10;;;;;;;12.72;100.00;100247.29;105199;1262;69263;-61
2023/08/09 02:10:13;;;;;;;4.90;2.20;;;;;;;12.74;100.00;100244.55;105270;1256;75678;-60
2023/08/09 02:12:40;;;;;;;2.70;2.00;;;;;;;12.75;100.00;100239.98;105207;1258;83377;-62
2023/08/09 02:15:08;;;;;;;2.50;2.00;;;;;;;12.75;100.00;100242.95;105190;1256;73692;-61
2023/08/09 02:17:36;;;;;;;5.70;2.00;;;;;;;12.75;100.00;100248.38;105296;1258;69179;-61
2023/08/09 02:20:04;;;;;;;4.70;2.10;;;;;;;12.76;100.00;100247.48;105231;1261;69072;-61
2023/08/09 02:22:36;;;;;;;3.80;1.60;;;;;;;12.75;100.00;100252.77;105271;1256;74613;-62
2023/08/09 02:25:04;;;;;;;3.50;1.70;;;;;;;12.73;100.00;100257.23;105133;1262;83328;-62
2023/08/09 02:27:31;;;;;;;5.00;1.90;;;;;;;12.73;100.00;100260.05;105246;1257;72555;-62
2023/08/09 02:30:03;;;;;;;3.70;2.00;;;;;;;12.69;100.00;100260.91;105324;1256;69172;-63
2023/08/09 02:32:34;;;;;;;5.00;1.90;;;;;;;12.70;100.00;100258.78;105273;1258;69170;-61
2023/08/09 02:35:01;;;;;;;2.40;1.80;;;;;;;12.73;100.00;100255.45;105296;1259;74746;-61
2023/08/09 02:37:29;;;;;;;2.40;1.70;;;;;;;12.72;100.00;100259.20;105305;1258;83593;-61
2023/08/09 02:39:56;;;;;;;4.20;1.80;;;;;;;12.72;100.00;100259.41;105223;1259;73869;-61
2023/08/09 02:42:23;;;;;;;3.50;1.90;;;;;;;12.71;100.00;100261.70;105217;1256;69066;-61
2023/08/09 02:44:50;;;;;;;4.70;1.90;;;;;;;12.71;100.00;100259.61;105251;1259;69176;-61
2023/08/09 02:47:17;;;;;;;6.00;1.60;;;;;;;12.71;100.00;100261.02;105156;1260;75705;-61
2023/08/09 02:49:44;;;;;;;4.40;1.60;;;;;;;12.69;100.00;100254.27;105264;1258;83296;-61
2023/08/09 02:52:11;;;;;;;5.20;2.10;;;;;;;12.66;100.00;100261.95;105291;1258;73697;-61
2023/08/09 02:54:38;;;;;;;4.20;1.70;;;;;;;12.60;100.00;100266.10;105239;1256;69167;-62
2023/08/09 02:57:09;;;;;;;;;;;;;;;12.55;100.00;100273.70;105297;1256;69192;-61
2023/08/09 02:59:36;;;;;;;3.00;1.70;;;;;;;12.50;100.00;100277.63;105062;1256;75546;-61
2023/08/09 03:02:03;;;;;;;6.20;1.80;;;;;;;12.47;100.00;100280.38;105158;1256;82672;-61
2023/08/09 03:04:31;;;;;;;2.70;2.10;;;;;;;12.44;100.00;100280.54;105261;1259;72690;-62
2023/08/09 03:06:58;;;;;;;4.10;2.10;;;;;;;12.40;100.00;100286.67;105230;1258;69148;-61
2023/08/09 03:09:26;;;;;;;3.10;1.70;;;;;;;12.33;100.00;100285.44;105158;1262;69190;-61
2023/08/09 03:11:53;;;;;;;2.80;1.70;;;;;;;12.30;100.00;100288.88;105128;1256;75693;-61
2023/08/09 03:14:21;;;;;;;5.50;1.80;;;;;;;12.25;100.00;100291.22;105227;1256;83204;-61
2023/08/09 03:16:48;;;;;;;6.20;2.30;;;;;;;12.19;100.00;100290.07;105197;1257;73754;-61
2023/08/09 03:19:15;;;;;;;3.70;2.10;;;;;;;12.15;100.00;100285.88;105216;1257;69074;-61
2023/08/09 03:21:44;;;;;;;4.80;2.10;;;;;;;12.14;100.00;100279.80;105251;1259;69278;-61
2023/08/09 03:24:11;;;;;;;3.90;1.60;;;;;;;12.13;100.00;100286.83;105059;1256;74512;-61
2023/08/09 03:26:40;;;;;;;3.80;1.60;;;;;;;12.12;100.00;100286.22;105106;1261;83157;-63
2023/08/09 03:29:07;;;;;;;3.70;2.20;;;;;;;12.11;100.00;100286.77;105258;1258;72709;-60
2023/08/09 03:31:35;;;;;;;3.50;2.00;;;;;;;12.11;100.00;100285.37;105279;1257;69060;-60
2023/08/09 03:34:02;;;;;;;5.10;2.20;;;;;;;12.13;100.00;100282.13;105234;1259;69264;-60
2023/08/09 03:36:30;;;;;;;4.00;1.90;;;;;;;12.15;100.00;100287.27;105319;1257;74565;-60
2023/08/09 03:38:57;;;;;;;3.60;2.10;;;;;;;12.16;100.00;100290.21;105237;1260;83354;-60
2023/08/09 03:41:25;;;;;;;3.30;1.90;;;;;;;12.17;100.00;100286.84;105214;1255;72551;-60
2023/08/09 03:43:52;;;;;;;3.60;1.70;;;;;;;12.18;100.00;100279.61;105087;1262;69196;-60
2023/08/09 03:46:19;;;;;;;3.60;2.00;;;;;;;12.20;100.00;100272.70;105313;1259;69202;-60
2023/08/09 03:48:47;;;;;;;3.50;1.90;;;;;;;12.22;100.00;100261.55;105143;1260;75559;-60
2023/08/09 03:51:14;;;;;;;3.40;1.60;;;;;;;12.25;100.00;100254.42;105236;1256;81949;-60
2023/08/09 03:53:41;;;;;;;3.40;2.30;;;;;;;12.28;100.00;100249.04;105211;1256;72667;-60
2023/08/09 03:56:08;;;;;;;3.80;2.10;;;;;;;12.31;100.00;100248.73;105166;1257;69185;-60
2023/08/09 03:58:35;;;;;;;2.40;1.80;;;;;;;12.35;100.00;100247.30;105315;1258;69212;-60
2023/08/09 04:01:02;;;;;;;3.90;1.70;;;;;;;12.37;100.00;100255.42;105221;1258;74953;-60
2023/08/09 04:03:29;;;;;;;6.10;1.70;;;;;;;12.39;100.00;100260.06;105223;1259;83257;-60
2023/08/09 04:05:56;;;;;;;3.00;1.90;;;;;;;12.42;100.00;100260.67;104997;1260;73879;-60
2023/08/09 04:08:26;;;;;;;3.60;2.00;;;;;;;12.44;100.00;100255.11;105210;1259;69221;-60
2023/08/09 04:10:54;;;;;;;2.70;1.80;;;;;;;12.47;100.00;100249.55;105307;1259;69192;-60
2023/08/09 04:13:21;;;;;;;3.80;1.70;;;;;;;12.50;100.00;100256.77;105328;1259;75915;-60
2023/08/09 04:15:48;;;;;;;3.50;2.30;;;;;;;12.52;100.00;100258.59;105238;1267;83316;-60
2023/08/09 04:18:16;;;;;;;4.40;2.10;;;;;;;12.54;100.00;100265.00;105160;1261;73698;-60
2023/08/09 04:20:45;;;;;;;4.70;2.40;;;;;;;12.54;100.00;100261.13;105305;1260;69115;-60
2023/08/09 04:23:12;;;;;;;3.90;1.90;;;;;;;12.55;100.00;100253.93;105304;1258;69176;-60
2023/08/09 04:25:39;;;;;;;3.30;1.70;;;;;;;12.55;100.00;100255.80;105205;1259;74624;-60
2023/08/09 04:28:08;;;;;;;3.10;2.10;;;;;;;12.56;100.00;100254.90;105293;1259;83306;-60
2023/08/09 04:30:36;;;;;;;3.50;2.00;;;;;;;12.56;100.00;100256.66;105287;1260;72632;-60
2023/08/09 04:33:03;;;;;;;2.90;1.80;;;;;;;12.55;100.00;100258.64;105250;1258;69096;-60
2023/08/09 04:35:31;;;;;;;3.60;1.80;;;;;;;12.55;100.00;100260.40;105271;1254;69237;-60
2023/08/09 04:38:00;;;;;;;4.00;2.20;;;;;;;12.58;100.00;100261.81;105254;1259;74710;-60
2023/08/09 04:40:27;;;;;;;2.30;1.80;;;;;;;12.60;100.00;100258.73;105311;1258;82327;-60
2023/08/09 04:42:53;;;;;;;3.40;1.90;;;;;;;12.63;100.00;100261.92;105193;1257;72688;-60
2023/08/09 04:45:21;;;;;;;6.10;1.80;;;;;;;12.68;100.00;100262.89;105238;1257;69270;-59
2023/08/09 04:47:52;;;;;;;2.90;1.70;;;;;;;12.74;100.00;100266.45;105296;1260;69144;-60
2023/08/09 04:50:22;;;;;;;7.50;1.90;;;;;;;12.80;100.00;100262.34;105244;1258;74987;-60
2023/08/09 04:52:50;;;;;;;3.00;1.70;;;;;;;12.86;100.00;100265.88;105221;1260;83644;-60
2023/08/09 04:55:18;;;;;;;6.00;2.00;;;;;;;12.92;100.00;100267.73;105243;1257;72708;-60
2023/08/09 04:57:47;;;;;;;3.10;1.70;;;;;;;12.96;100.00;100268.77;105337;1259;69129;-60
2023/08/09 05:00:14;;;;;;;3.00;1.60;;;;;;;13.01;100.00;100270.96;105236;1262;69120;-60
2023/08/09 05:02:41;;;;;;;2.70;1.60;;;;;;;13.04;100.00;100275.88;105253;1258;75492;-60
2023/08/09 05:05:10;;;;;;;6.70;2.10;;;;;;;13.08;100.00;100283.05;105308;1260;83020;-60
2023/08/09 05:07:37;;;;;;;3.30;2.00;;;;;;;13.12;100.00;100281.10;105276;1260;73631;-60
2023/08/09 05:10:06;;;;;;;5.30;2.00;;;;;;;13.17;100.00;100282.10;105297;1260;69274;-60
2023/08/09 05:12:33;;;;;;;4.90;1.90;;;;;;;13.20;100.00;100283.34;105275;1260;69124;-60
2023/08/09 05:15:00;;;;;;;4.80;1.90;;;;;;;13.24;100.00;100284.39;105244;1259;74607;-60
2023/08/09 05:17:28;;;;;;;2.90;1.70;;;;;;;13.30;100.00;100290.77;105254;1267;83394;-60
2023/08/09 05:19:55;;;;;;;3.50;1.90;;;;;;;13.38;100.00;100290.73;105301;1259;73736;-60
2023/08/09 05:22:23;;;;;;;3.10;1.40;;;;;;;13.45;100.00;100290.39;105229;1268;69170;-60
2023/08/09 05:24:50;;;;;;;3.30;1.80;;;;;;;13.53;100.00;100294.02;105300;1262;69053;-60
2023/08/09 05:27:17;;;;;;;3.90;1.70;;;;;;;13.62;100.00;100296.73;105215;1262;75754;-59
2023/08/09 05:29:44;;;;;;;3.40;1.80;;;;;;;13.69;100.00;100290.37;105266;1259;83660;-58
2023/08/09 05:32:11;;;;;;;2.40;1.50;;;;;;;13.76;100.00;100296.69;105166;1257;73939;-59
2023/08/09 05:34:38;;;;;;;3.90;2.00;;;;;;;13.81;100.00;100295.00;105297;1257;69182;-60
2023/08/09 05:37:06;;;;;;;4.20;1.70;;;;;;;13.88;100.00;100294.52;105412;1260;69111;-59
2023/08/09 05:39:32;;;;;;;5.30;2.00;;;;;;;13.92;100.00;100299.04;105255;1259;75654;-59
2023/08/09 05:41:59;;;;;;;4.30;1.80;;;;;;;13.95;100.00;100301.86;105226;1260;82518;-60
2023/08/09 05:44:27;;;;;;;3.20;1.70;;;;;;;13.98;100.00;100309.22;105349;1260;73849;-60
2023/08/09 05:46:54;;;;;;;3.30;2.00;;;;;;;14.01;100.00;100312.77;105481;1268;69124;-60
2023/08/09 05:49:21;;;;;;;3.40;2.20;;;;;;;14.02;100.00;100315.54;105173;1269;69219;-60
2023/08/09 05:51:48;;;;;;;2.80;1.90;;;;;;;14.04;100.00;100318.23;105292;1261;74585;-59
2023/08/09 05:54:15;;;;;;;4.30;2.00;;;;;;;14.06;100.00;100316.23;105182;1260;83231;-60
2023/08/09 05:56:42;;;;;;;2.50;1.50;;;;;;;14.07;100.00;100315.60;105291;1262;73599;-60
2023/08/09 05:59:10;;;;;;;3.50;2.00;;;;;;;14.10;100.00;100317.61;105286;1260;69326;-62
2023/08/09 06:01:37;;;;;;;3.70;2.20;;;;;;;14.12;100.00;100317.45;105233;1263;69340;-62
2023/08/09 06:04:04;;;;;;;3.00;1.80;;;;;;;14.14;100.00;100320.88;105348;1259;74452;-62
2023/08/09 06:06:31;;;;;;;3.00;2.20;;;;;;;14.16;100.00;100326.39;105276;1260;83288;-62
2023/08/09 06:08:58;;;;;;;5.30;2.40;;;;;;;14.18;100.00;100329.45;105166;1260;73774;-62
2023/08/09 06:11:26;;;;;;;2.30;1.70;;;;;;;14.21;100.00;100324.70;105184;1257;69270;-62
2023/08/09 06:13:52;;;;;;;4.10;1.90;;;;;;;14.27;100.00;100330.36;105411;1260;69159;-62
2023/08/09 06:16:19;;;;;;;2.70;2.00;;;;;;;14.30;100.00;100327.76;105155;1271;75816;-62
2023/08/09 06:18:47;;;;;;;3.40;1.90;;;;;;;14.31;100.00;100337.55;105309;1261;83263;-62
2023/08/09 06:21:14;;;;;;;4.00;1.90;;;;;;;14.33;100.00;100343.42;105225;1259;73690;-62
2023/08/09 06:23:40;;;;;;;5.90;2.20;;;;;;;14.33;100.00;100344.64;105234;1259;69205;-62
2023/08/09 06:26:07;;;;;;;3.10;2.00;;;;;;;14.33;100.00;100345.88;105265;1261;69627;-62
2023/08/09 06:28:34;;;;;;;4.20;2.80;;;;;;;14.33;100.00;100344.63;105208;1260;74645;-63
2023/08/09 06:31:01;;;;;;;6.80;2.40;;;;;;;14.32;100.00;100344.71;105417;1259;83456;-63
2023/08/09 06:33:30;;;;;;;3.60;2.20;;;;;;;14.31;100.00;100348.48;105384;1258;72712;-63
2023/08/09 06:35:57;;;;;;;5.00;2.40;;;;;;;14.28;100.00;100350.52;105280;1258;69206;-63
2023/08/09 06:38:24;;;;;;;5.20;2.20;;;;;;;14.26;100.00;100358.17;105263;1260;69106;-62
2023/08/09 06:40:51;;;;;;;3.70;2.20;;;;;;;14.24;100.00;100360.78;105298;1260;75636;-63
2023/08/09 06:43:18;;;;;;;6.40;2.40;;;;;;;14.21;100.00;100362.13;105206;1267;82506;-62
2023/08/09 06:45:48;;;;;;;6.20;3.10;;;;;;;14.18;100.00;100366.87;105308;1263;73438;-62
2023/08/09 06:48:15;;;;;;;;;;;;;;;14.17;100.00;100370.63;105185;1261;69074;-62
2023/08/09 06:50:45;;;;;;;2.80;2.20;;;;;;;14.13;100.00;100366.79;105225;1262;69143;-62
2023/08/09 06:53:13;;;;;;;4.60;2.50;;;;;;;14.11;100.00;100366.58;105267;1257;75617;-62
2023/08/09 06:55:40;;;;;;;6.10;2.70;;;;;;;14.07;100.00;100373.93;105452;1260;81236;-62
2023/08/09 06:58:07;;;;;;;4.20;2.40;;;;;;;14.04;100.00;100371.99;105295;1260;73515;-62
2023/08/09 07:00:34;;;;;;;4.80;2.60;;;;;;;14.03;100.00;100370.99;105183;1260;69084;-62
2023/08/09 07:03:00;;;;;;;5.20;2.30;;;;;;;14.01;100.00;100369.52;105182;1261;69395;-63
2023/08/09 07:05:28;;;;;;;5.10;2.80;;;;;;;13.99;100.00;100368.57;105309;1259;75709;-64
2023/08/09 07:07:56;;;;;;;3.30;2.40;;;;;;;13.99;100.00;100368.37;105362;1261;83404;-64
2023/08/09 07:10:27;;;;;;;5.20;2.70;;;;;;;14.03;100.00;100371.35;105266;1259;73648;-64
2023/08/09 07:12:54;;;;;;;;;;;;;;;14.06;100.00;100372.27;105249;1257;69205;-64
2023/08/09 07:15:21;;;;;;;3.80;2.60;;;;;;;14.03;100.00;100377.51;105301;1259;69142;-62
2023/08/09 07:17:49;;;;;;;3.90;2.90;;;;;;;13.98;100.00;100378.80;105241;1261;74576;-59
2023/08/09 07:20:16;;;;;;;7.60;2.90;;;;;;;13.95;100.00;100382.85;105309;1260;83546;-60
2023/08/09 07:22:44;;;;;;;5.40;2.80;;;;;;;13.94;100.00;100377.07;105365;1260;73595;-60
2023/08/09 07:25:16;;;;;;;6.80;2.90;;;;;;;13.96;100.00;100378.92;105415;1256;69067;-60
2023/08/09 07:27:46;;;;;;;3.70;2.80;;;;;;;14.00;100.00;100380.48;105416;1256;69199;-60
2023/08/09 07:30:15;;;;;;;4.50;2.60;;;;;;;14.03;100.00;100380.30;105410;1259;75670;-61
2023/08/09 07:32:42;;;;;;;17.50;4.50;;;;;;;14.08;100.00;100382.86;105275;1259;83073;-60
2023/08/09 07:35:10;;;;;;;35.50;6.90;;;;;;;14.16;100.00;100380.88;105423;1260;73742;-61
2023/08/09 07:37:40;;;;;;;16.20;4.90;;;;;;;14.25;100.00;100377.40;105486;1259;69054;-61
2023/08/09 07:40:08;;;;;;;4.90;2.90;;;;;;;14.34;100.00;100370.10;105445;1260;69137;-63
2023/08/09 07:42:35;;;;;;;5.10;2.80;;;;;;;14.39;100.00;100373.84;105236;1261;74655;-61
2023/08/09 07:45:03;;;;;;;8.20;2.50;;;;;;;14.43;100.00;100378.55;105217;1261;119185;-61
2023/08/09 07:47:31;;;;;;;4.30;2.40;;;;;;;14.48;100.00;100378.31;105543;1257;73477;-62
2023/08/09 07:49:59;;;;;;;3.90;2.20;;;;;;;14.47;100.00;100376.23;105438;1256;69201;-61
2023/08/09 07:52:26;;;;;;;3.30;1.70;;;;;;;14.45;100.00;100370.33;105445;1257;69164;-62
2023/08/09 07:54:53;;;;;;;3.90;1.90;;;;;;;14.46;100.00;100368.35;105165;1261;74603;-62
2023/08/09 07:57:20;;;;;;;2.20;1.70;;;;;;;14.47;100.00;100370.98;105424;1258;83546;-63
2023/08/09 07:59:47;;;;;;;6.70;1.70;;;;;;;14.44;100.00;100370.59;105374;1261;74150;-62
2023/08/09 08:02:14;;;;;;;4.80;1.80;;;;;;;14.40;100.00;100375.56;105326;1260;69087;-62
2023/08/09 08:04:41;;;;;;;3.90;2.10;;;;;;;14.39;100.00;100380.20;105336;1258;70949;-64
2023/08/09 08:07:09;;;;;;;5.20;2.10;;;;;;;14.36;100.00;100382.65;105298;1257;74449;-65
2023/08/09 08:09:41;;;;;;;3.90;1.70;;;;;;;14.33;100.00;100381.55;105293;1258;81510;-65
2023/08/09 08:12:09;;;;;;;6.10;2.30;;;;;;;14.32;100.00;100379.34;105394;1260;73808;-63
2023/08/09 08:14:49;;;;;;;5.60;2.10;;;;;;;14.33;100.00;100373.30;105323;1260;69180;-61
2023/08/09 08:17:16;;;;;;;3.70;2.00;;;;;;;14.36;100.00;100370.52;105371;1259;69122;-61
2023/08/09 08:19:43;;;;;;;4.30;1.80;;;;;;;14.34;100.00;100367.78;105385;1256;74678;-62
2023/08/09 08:22:11;;;;;;;4.90;2.20;;;;;;;14.34;100.00;100365.19;105421;1260;83149;-62
2023/08/09 08:24:39;;;;;;;4.60;1.90;;;;;;;14.33;100.00;100361.89;105298;1257;73028;-62
2023/08/09 08:27:06;;;;;;;3.20;2.10;;;;;;;14.31;100.00;100362.69;105358;1258;69024;-62
2023/08/09 08:29:33;;;;;;;4.40;2.20;;;;;;;14.28;100.00;100359.14;105336;1259;69190;-61
2023/08/09 08:32:00;;;;;;;4.20;1.80;;;;;;;14.25;100.00;100358.42;105275;1258;75420;-61
2023/08/09 08:34:31;;;;;;;6.20;2.60;;;;;;;14.22;100.00;100357.88;105340;1261;82275;-61
2023/08/09 08:36:59;;;;;;;;;;;;;;;14.20;100.00;100356.55;105617;1261;72664;-61
2023/08/09 08:39:29;;;;;;;5.20;2.00;;;;;;;14.19;100.00;100360.33;105340;1260;69186;-61
2023/08/09 08:41:56;;;;;;;5.10;2.50;;;;;;;14.21;100.00;100358.64;105477;1260;69161;-60
2023/08/09 08:44:25;;;;;;;4.10;2.00;;;;;;;14.32;100.00;100361.58;105527;1257;75931;-61
2023/08/09 08:46:52;;;;;;;4.70;2.40;;;;;;;14.43;100.00;100365.04;105419;1258;83420;-61
2023/08/09 08:49:23;;;;;;;5.10;2.00;;;;;;;14.49;100.00;100363.84;105365;1259;73790;-61
2023/08/09 08:51:55;;;;;;;3.20;1.70;;;;;;;14.50;100.00;100364.46;105491;1259;69180;-63
2023/08/09 08:54:23;;;;;;;4.00;2.30;;;;;;;14.48;100.00;100369.69;105358;1258;69190;-63
2023/08/09 08:56:50;;;;;;;4.30;1.80;;;;;;;14.47;100.00;100369.20;105256;1260;75844;-63
2023/08/09 08:59:17;;;;;;;3.10;1.90;;;;;;;14.43;100.00;100366.44;105428;1259;83481;-63
2023/08/09 09:01:44;;;;;;;2.70;1.70;;;;;;;14.45;100.00;100364.77;105278;1257;73776;-62
2023/08/09 09:04:12;;;;;;;3.30;1.60;;;;;;;14.39;100.00;100357.48;105198;1257;68951;-62
2023/08/09 09:06:39;;;;;;;3.20;1.50;;;;;;;14.26;100.00;100356.79;105208;1260;69086;-62
2023/08/09 09:09:11;;;;;;;3.20;1.30;;;;;;;14.23;100.00;100355.52;105345;1257;75758;-62
2023/08/09 09:11:39;;;;;;;3.70;1.70;;;;;;;14.22;100.00;100363.34;105720;1260;82239;-62
2023/08/09 09:14:11;;;;;;;6.30;2.00;;;;;;;14.24;100.00;100359.52;105438;1258;73814;-61
2023/08/09 09:16:39;;;;;;;2.90;1.70;;;;;;;14.33;100.00;100359.73;105487;1260;69104;-64
2023/08/09 09:19:06;;;;;;;4.60;2.20;;;;;;;14.43;100.00;100358.86;105305;1260;69125;-62
2023/08/09 09:21:35;;;;;;;4.00;2.00;;;;;;;14.52;100.00;100358.59;105308;1259;75594;-62
2023/08/09 09:24:05;;;;;;;3.30;1.80;;;;;;;14.58;100.00;100351.79;105369;1259;83292;-62
2023/08/09 09:26:33;;;;;;;3.60;2.00;;;;;;;14.58;100.00;100347.01;105425;1260;73697;-62
2023/08/09 09:29:00;;;;;;;4.30;2.00;;;;;;;14.66;100.00;100347.81;105319;1257;69301;-62
2023/08/09 09:31:39;;;;;;;3.00;2.00;;;;;;;14.79;100.00;100349.75;105392;1259;69206;-62
2023/08/09 09:34:07;;;;;;;2.80;1.90;;;;;;;14.96;100.00;100354.08;105428;1257;75838;-62
2023/08/09 09:36:38;;;;;;;2.60;2.00;;;;;;;15.14;100.00;100359.20;105451;1258;83644;-62
2023/08/09 09:39:12;;;;;;;3.70;1.90;;;;;;;15.30;100.00;100357.94;105378;1257;72309;-62
2023/08/09 09:41:46;;;;;;;4.10;2.30;;;;;;;15.42;100.00;100362.71;105303;1255;69029;-62
2023/08/09 09:44:20;;;;;;;4.20;1.80;;;;;;;15.51;100.00;100359.57;105492;1259;69139;-62
2023/08/09 09:46:53;;;;;;;4.00;1.80;;;;;;;15.64;100.00;100348.08;105359;1257;75779;-62
2023/08/09 09:49:20;;;;;;;3.60;1.90;;;;;;;15.73;100.00;100334.35;105406;1258;83256;-63
2023/08/09 09:51:49;;;;;;;4.50;2.20;;;;;;;15.88;100.00;100332.55;105333;1259;73670;-64
2023/08/09 09:54:16;;;;;;;3.10;1.80;;;;;;;15.99;100.00;100344.95;105300;1258;69504;-64
2023/08/09 09:56:43;;;;;;;4.30;2.30;;;;;;;16.02;100.00;100350.58;105407;1258;69088;-64
2023/08/09 09:59:10;;;;;;;3.30;1.90;;;;;;;16.09;100.00;100357.95;105501;1257;74399;-63
2023/08/09 10:01:42;;;;;;;3.50;1.90;;;;;;;16.23;100.00;100362.86;105391;1260;83327;-64
2023/08/09 10:04:11;;;;;;;3.30;1.70;;;;;;;16.48;100.00;100366.30;105377;1257;73550;-64
2023/08/09 10:06:43;;;;;;;6.30;1.90;;;;;;;16.72;100.00;100365.87;105421;1256;69205;-64
2023/08/09 10:09:13;;;;;;;2.90;1.90;;;;;;;16.93;100.00;100366.46;105404;1259;69192;-64
2023/08/09 10:11:41;;;;;;;3.50;1.30;;;;;;;17.11;100.00;100367.80;105590;1258;75743;-64
2023/08/09 10:14:09;;;;;;;2.30;1.50;;;;;;;17.21;100.00;100366.08;105311;1260;83578;-64
2023/08/09 10:16:36;;;;;;;2.00;1.20;;;;;;;17.25;100.00;100377.52;105165;1261;72608;-63
2023/08/09 10:19:08;;;;;;;3.70;1.30;;;;;;;17.25;100.00;100382.80;105539;1259;69151;-63
2023/08/09 10:21:36;;;;;;;6.70;2.10;;;;;;;17.34;100.00;100388.20;105340;1256;69117;-63
2023/08/09 10:24:08;;;;;;;2.60;1.40;;;;;;;17.45;100.00;100394.54;105422;1257;75933;-63
2023/08/09 10:26:39;;;;;;;2.60;1.50;;;;;;;17.53;100.00;100394.19;105422;1260;82638;-63
2023/08/09 10:29:10;;;;;;;1.20;1.00;;;;;;;17.71;100.00;100394.78;105382;1256;73764;-63
2023/08/09 10:31:59;;;;;;;3.50;1.40;;;;;;;17.93;100.00;100391.36;105397;1260;69385;-62
2023/08/09 10:34:36;;;;;;;3.20;1.30;;;;;;;18.35;100.00;100381.56;105455;1260;69302;-62
2023/08/09 10:37:04;;;;;;;2.80;1.40;;;;;;;18.75;100.00;100377.41;105428;1256;75743;-64
2023/08/09 10:39:33;;;;;;;3.20;1.40;;;;;;;18.79;100.00;100380.15;105288;1261;82369;-61
2023/08/09 10:42:00;;;;;;;2.00;1.10;;;;;;;19.01;100.00;100382.56;105546;1259;73702;-60
2023/08/09 10:44:41;;;;;;;2.40;1.10;;;;;;;19.33;99.96;100384.52;105490;1258;69096;-59
2023/08/09 10:47:20;;;;;;;2.10;1.40;;;;;;;19.47;98.36;100389.69;105475;1255;69071;-60
2023/08/09 10:49:47;;;;;;;2.80;1.20;;;;;;;19.40;97.06;100393.71;105594;1255;75835;-60
2023/08/09 10:52:16;;;;;;;2.00;1.10;;;;;;;19.24;95.54;100394.94;105160;1258;81293;-58
2023/08/09 10:54:48;;;;;;;2.40;1.30;;;;;;;19.11;94.94;100394.99;105279;1258;73490;-60
2023/08/09 10:57:16;;;;;;;3.10;1.30;;;;;;;19.10;94.76;100393.05;105407;1256;69173;-60
2023/08/09 10:59:43;;;;;;;1.60;1.20;;;;;;;19.11;94.72;100392.11;105325;1259;69115;-60
2023/08/09 11:02:10;;;;;;;2.60;1.00;;;;;;;19.08;93.94;100395.54;105411;1259;75774;-59
2023/08/09 11:04:37;;;;;;;2.90;1.00;;;;;;;18.84;92.34;100397.44;105340;1255;82312;-60
2023/08/09 11:07:06;;;;;;;1.60;1.10;;;;;;;18.61;92.06;100398.66;105422;1259;73955;-60
2023/08/09 11:09:33;;;;;;;2.00;1.10;;;;;;;18.49;91.77;100400.96;105310;1257;69253;-60
2023/08/09 11:12:00;;;;;;;1.90;0.90;;;;;;;18.45;92.45;100399.24;105298;1256;69089;-60
2023/08/09 11:14:30;;;;;;;1.70;1.10;;;;;;;18.45;92.06;100402.79;105389;1256;75568;-60
2023/08/09 11:16:56;;;;;;;2.90;1.00;;;;;;;18.39;91.72;100405.20;105522;1258;83882;-61